Goldfield, Nevada
Current Conditions -  °F | °C
As of 2:56 PM on Thursday 27 Nov 2014 (Local Time) from KTPH Reporting Station
Clear Clear  
Wind Chill: 56°   Ceiling: Unl
Heat Index: 56°   Visibility: 10mi
Dew Point: 16°   Wind: 3mph
Humidity: 21%   Direction: 240°WSW
Pressure: 30.27"   Gusts: NA
Location:  37.71°N, 117.24°W
Report Text: KTPH 272256Z AUTO 24003KT 10SM CLR 13/M09 A3027 RMK AO2 SLP229 T01331089
Loading
Personal Weather Stations






























Interactive Weather Map New forecast layout! Learn more

10-Day Weather Forecast

Advertisements
Track Severe Weather on mobile